Time;durP1;ratioP1;P1;durP2;ratioP2;P2;SDS_P1;SDS_P2;PMS_P1;PMS_P2;Temp;Humidity;BMP_temperature;BMP_pressure;BME280_temperature;BME280_humidity;BME280_pressure;Samples;Min_cycle;Max_cycle;Signal;HPM_P1;HPM_P2
2021/12/22 00:00:11;;;;;;;19.47;9.50;;;-0.60;69.20;;;;;;5035051;28;20411;-74
2021/12/22 00:02:45;;;;;;;16.55;9.93;;;-0.60;68.10;;;;;;5034629;28;20383;-75
2021/12/22 00:05:12;;;;;;;20.00;10.10;;;-0.70;69.40;;;;;;5034722;28;20395;-74
2021/12/22 00:07:37;;;;;;;16.35;9.35;;;-0.70;69.70;;;;;;5031355;28;20403;-76
2021/12/22 00:10:03;;;;;;;16.85;8.40;;;-0.60;70.00;;;;;;5034755;28;20812;-74
2021/12/22 00:12:29;;;;;;;18.07;9.30;;;-0.70;69.20;;;;;;5024829;28;20870;-75
2021/12/22 00:14:54;;;;;;;17.33;9.90;;;-0.60;69.20;;;;;;5032109;28;20486;-76
2021/12/22 00:17:20;;;;;;;19.97;9.80;;;-0.70;69.10;;;;;;5032581;28;20772;-74
2021/12/22 00:19:45;;;;;;;18.53;8.47;;;-0.80;69.50;;;;;;5033779;28;20383;-74
2021/12/22 00:22:11;;;;;;;17.55;8.77;;;-0.60;68.90;;;;;;5017379;28;20393;-74
2021/12/22 00:24:36;;;;;;;15.57;9.40;;;-0.60;69.40;;;;;;5014035;28;20436;-74
2021/12/22 00:27:03;;;;;;;16.27;9.23;;;-0.60;67.60;;;;;;5014233;28;20454;-74
2021/12/22 00:29:28;;;;;;;15.25;9.50;;;-0.70;68.20;;;;;;5024204;28;20402;-74
2021/12/22 00:32:15;;;;;;;16.17;9.68;;;-0.70;68.50;;;;;;5036427;28;20463;-74
2021/12/22 00:34:51;;;;;;;15.30;9.60;;;-0.70;68.80;;;;;;5033881;28;20387;-74
2021/12/22 00:37:19;;;;;;;19.63;10.07;;;-0.70;68.10;;;;;;5025830;28;20440;-75
2021/12/22 00:39:45;;;;;;;18.60;9.60;;;-0.70;68.10;;;;;;5014921;28;20377;-73
2021/12/22 00:42:12;;;;;;;14.53;8.60;;;-0.70;67.90;;;;;;5016956;28;20401;-74
2021/12/22 00:44:43;;;;;;;19.20;10.13;;;-0.70;67.00;;;;;;5031979;28;20402;-75
2021/12/22 00:47:09;;;;;;;16.60;8.97;;;-0.80;67.30;;;;;;5033511;28;20444;-74
2021/12/22 00:49:35;;;;;;;17.75;9.07;;;-0.70;67.10;;;;;;5033495;28;20383;-74
2021/12/22 00:52:02;;;;;;;15.23;7.68;;;-0.80;67.30;;;;;;5016027;28;20400;-74
2021/12/22 00:54:27;;;;;;;13.93;8.30;;;-0.60;66.90;;;;;;5014202;28;20408;-74
2021/12/22 00:56:56;;;;;;;16.65;9.10;;;-0.70;65.40;;;;;;5015552;28;20404;-76
2021/12/22 00:59:22;;;;;;;14.00;8.55;;;-0.80;66.60;;;;;;5014708;28;20799;-74
2021/12/22 01:01:47;;;;;;;13.30;7.87;;;-0.80;67.60;;;;;;5015827;28;20451;-74
2021/12/22 01:04:13;;;;;;;15.93;8.60;;;-0.80;68.10;;;;;;5021031;28;20532;-72
2021/12/22 01:06:39;;;;;;;14.00;8.10;;;-0.80;66.10;;;;;;5027518;28;20400;-73
2021/12/22 01:09:05;;;;;;;13.68;7.30;;;-0.80;66.90;;;;;;5017636;28;20849;-73
2021/12/22 01:11:31;;;;;;;12.98;7.45;;;-0.80;66.70;;;;;;5012416;28;20412;-74
2021/12/22 01:13:57;;;;;;;14.43;7.22;;;-0.80;67.60;;;;;;5031937;28;20411;-73
2021/12/22 01:16:23;;;;;;;12.50;7.93;;;-0.70;66.40;;;;;;5031951;28;20466;-73
2021/12/22 01:18:49;;;;;;;14.27;7.20;;;-0.80;65.90;;;;;;5031498;28;20438;-74
2021/12/22 01:21:28;;;;;;;13.10;7.00;;;-0.80;66.10;;;;;;5013530;28;20893;-74
2021/12/22 01:24:14;;;;;;;11.68;6.80;;;-0.80;65.80;;;;;;5012837;28;20742;-73
2021/12/22 01:26:45;;;;;;;10.45;6.53;;;-0.80;65.80;;;;;;5013256;28;20403;-74
2021/12/22 01:29:13;;;;;;;10.55;6.30;;;-0.70;65.10;;;;;;5013351;28;20455;-75
2021/12/22 01:31:40;;;;;;;10.57;6.60;;;-0.70;65.40;;;;;;5021118;28;20427;-74
2021/12/22 01:34:06;;;;;;;13.05;7.43;;;-0.80;65.30;;;;;;5018545;28;20488;-76
2021/12/22 01:36:32;;;;;;;12.88;7.68;;;-0.90;66.40;;;;;;5011141;28;20476;-74
2021/12/22 01:38:57;;;;;;;11.70;6.30;;;-0.90;67.10;;;;;;5012628;28;20467;-74
2021/12/22 01:41:23;;;;;;;12.82;7.38;;;-0.90;67.10;;;;;;5014907;28;20381;-74
2021/12/22 01:43:49;;;;;;;11.97;7.30;;;-0.70;65.90;;;;;;5016011;28;20406;-74
2021/12/22 01:49:40;;;;;;;16.40;6.95;;;-0.70;64.60;;;;;;5025200;28;20422;-74
2021/12/22 01:52:07;;;;;;;11.90;6.95;;;-0.80;64.40;;;;;;5031849;28;20387;-75
2021/12/22 01:54:37;;;;;;;12.30;7.25;;;-0.70;65.10;;;;;;5031441;28;20440;-74
2021/12/22 01:57:08;;;;;;;12.75;7.43;;;-0.80;64.80;;;;;;5031934;28;20450;-74
2021/12/22 02:00:17;;;;;;;10.85;6.70;;;-0.80;65.00;;;;;;5018348;28;20424;-74
2021/12/22 02:02:43;;;;;;;9.55;5.85;;;-0.80;66.30;;;;;;5012715;28;20393;-74
2021/12/22 02:05:09;;;;;;;13.57;7.13;;;-0.80;66.60;;;;;;5012358;28;20388;-75
2021/12/22 02:07:35;;;;;;;15.35;7.43;;;-0.90;66.70;;;;;;5022675;28;20389;-75
2021/12/22 02:10:19;;;;;;;11.20;7.10;;;-0.90;66.40;;;;;;5020932;28;20858;-75
2021/12/22 02:12:49;;;;;;;12.27;7.53;;;-0.90;68.10;;;;;;5033674;28;20457;-74
2021/12/22 02:15:15;;;;;;;14.93;7.53;;;-1.00;69.40;;;;;;5030405;28;20395;-75
2021/12/22 02:17:41;;;;;;;11.88;6.65;;;-0.90;69.00;;;;;;5016992;28;20396;-74
2021/12/22 02:20:08;;;;;;;13.60;8.20;;;-0.90;69.20;;;;;;5011830;28;20411;-74
2021/12/22 02:22:34;;;;;;;10.73;7.07;;;-1.00;68.90;;;;;;5014147;28;20500;-75
2021/12/22 02:25:07;;;;;;;14.00;7.15;;;-1.00;69.70;;;;;;5034096;28;20395;-75
2021/12/22 02:27:42;;;;;;;11.70;6.85;;;-1.00;70.20;;;;;;5034817;28;20398;-75
2021/12/22 02:30:15;;;;;;;16.00;7.28;;;-1.00;69.70;;;;;;5035410;28;20386;-74
2021/12/22 02:33:08;;;;;;;12.18;7.40;;;-1.10;70.10;;;;;;5032442;28;20415;-75
2021/12/22 02:35:42;;;;;;;12.52;6.45;;;-1.00;68.80;;;;;;5015483;28;20491;-75
2021/12/22 02:38:15;;;;;;;14.65;7.80;;;-0.90;69.90;;;;;;5015591;28;20396;-73
2021/12/22 02:40:43;;;;;;;11.25;7.13;;;-1.00;68.20;;;;;;5013979;28;20392;-74
2021/12/22 02:43:09;;;;;;;13.15;7.20;;;-1.00;68.70;;;;;;5023728;28;20410;-74
2021/12/22 02:45:36;;;;;;;9.35;6.47;;;-1.10;69.70;;;;;;5013429;28;20820;-75
2021/12/22 02:48:04;;;;;;;13.90;7.40;;;-1.10;70.10;;;;;;5027601;28;20398;-74
2021/12/22 02:50:29;;;;;;;14.77;7.40;;;-1.20;70.60;;;;;;5034231;28;20379;-73
2021/12/22 02:53:11;;;;;;;12.10;6.90;;;-1.20;71.10;;;;;;5033724;28;20421;-74
2021/12/22 02:56:29;;;;;;;13.57;7.00;;;-1.20;71.70;;;;;;5035207;28;20379;-75
2021/12/22 03:04:04;;;;;;;9.35;6.30;;;-1.30;73.10;;;;;;5022776;28;20398;-76
2021/12/22 03:06:28;;;;;;;16.97;6.40;;;-1.30;73.60;;;;;;5035677;28;20399;-75
2021/12/22 03:08:53;;;;;;;10.75;6.20;;;-1.20;72.50;;;;;;5014887;28;20787;-75
2021/12/22 03:11:19;;;;;;;8.80;5.30;;;-1.10;71.30;;;;;;5014744;28;20381;-75
2021/12/22 03:13:46;;;;;;;11.77;6.82;;;-1.20;71.70;;;;;;5023017;28;20439;-75
2021/12/22 03:16:11;;;;;;;12.57;6.60;;;-1.10;71.60;;;;;;5020764;28;20400;-73
2021/12/22 03:18:38;;;;;;;9.33;6.10;;;-1.30;71.60;;;;;;5032832;28;20464;-74
2021/12/22 03:21:18;;;;;;;9.43;6.20;;;-1.20;72.60;;;;;;5034507;28;21062;-74
2021/12/22 03:23:44;;;;;;;13.05;7.18;;;-1.20;71.10;;;;;;5030337;28;20403;-74
2021/12/22 03:26:13;;;;;;;9.63;6.30;;;-1.20;72.00;;;;;;5014349;28;20451;-74
2021/12/22 03:28:39;;;;;;;9.13;5.90;;;-1.20;72.30;;;;;;5028852;28;21010;-73
2021/12/22 03:31:04;;;;;;;8.87;5.70;;;-1.30;72.90;;;;;;5036261;28;20413;-74
2021/12/22 03:33:30;;;;;;;14.10;6.40;;;-1.20;74.10;;;;;;5024492;28;20460;-74
2021/12/22 03:35:56;;;;;;;13.23;6.35;;;-1.20;70.90;;;;;;5034164;28;20376;-74
2021/12/22 03:38:21;;;;;;;11.87;5.83;;;-1.20;71.40;;;;;;5018599;28;20393;-74
2021/12/22 03:40:47;;;;;;;8.90;5.97;;;-1.10;70.50;;;;;;5014309;28;20530;-73
2021/12/22 03:43:12;;;;;;;11.50;6.07;;;-1.10;70.00;;;;;;5014427;28;20408;-73
2021/12/22 03:45:38;;;;;;;13.55;6.55;;;-0.90;69.50;;;;;;5019439;28;20766;-74
2021/12/22 03:48:04;;;;;;;8.90;5.43;;;-0.90;67.20;;;;;;5037040;28;20417;-74
2021/12/22 03:50:29;;;;;;;8.82;5.38;;;-0.90;66.90;;;;;;5048589;28;20446;-73
2021/12/22 03:52:55;;;;;;;7.83;5.30;;;-1.00;68.10;;;;;;5035619;28;20538;-74
2021/12/22 03:55:21;;;;;;;15.27;6.30;;;-1.00;68.20;;;;;;5012833;28;20385;-75
2021/12/22 03:57:46;;;;;;;9.70;5.32;;;-1.00;67.40;;;;;;5014129;28;20893;-75
2021/12/22 04:00:13;;;;;;;9.90;5.57;;;-1.00;67.80;;;;;;5013995;28;20762;-74
2021/12/22 04:02:39;;;;;;;10.85;6.30;;;-1.00;68.00;;;;;;5014349;28;20801;-74
2021/12/22 04:05:06;;;;;;;11.10;6.30;;;-1.10;68.50;;;;;;5031515;28;20547;-75
2021/12/22 04:07:32;;;;;;;10.05;6.07;;;-1.10;68.20;;;;;;5032950;28;20395;-74
2021/12/22 04:09:58;;;;;;;12.02;5.90;;;-1.00;68.70;;;;;;5033085;28;20461;-74
2021/12/22 04:12:24;;;;;;;8.05;5.60;;;-1.10;68.60;;;;;;5020875;28;20401;-74
2021/12/22 04:14:50;;;;;;;12.35;5.60;;;-1.10;68.80;;;;;;5012498;28;20770;-76
2021/12/22 04:17:16;;;;;;;8.87;5.67;;;-1.00;68.00;;;;;;5031345;28;20394;-76
2021/12/22 04:19:41;;;;;;;7.97;5.60;;;-1.00;68.10;;;;;;5012249;28;20817;-75
2021/12/22 04:22:08;;;;;;;7.43;5.28;;;-1.10;69.70;;;;;;5016147;28;20392;-74
2021/12/22 04:24:34;;;;;;;11.75;6.38;;;-1.00;68.50;;;;;;5025083;28;20408;-74
2021/12/22 04:26:59;;;;;;;14.20;6.20;;;-1.10;68.50;;;;;;5043298;28;20447;-74
2021/12/22 04:29:25;;;;;;;9.53;5.70;;;-1.10;69.10;;;;;;5046479;28;20391;-75
2021/12/22 04:31:51;;;;;;;8.17;5.23;;;-1.10;69.50;;;;;;5035923;28;20411;-75
2021/12/22 04:34:16;;;;;;;8.88;5.38;;;-1.00;67.80;;;;;;5027430;28;20418;-75
2021/12/22 04:36:42;;;;;;;8.55;5.30;;;-1.00;66.50;;;;;;5037411;28;20385;-73
2021/12/22 04:39:09;;;;;;;14.13;5.53;;;-1.00;66.70;;;;;;5037635;28;20388;-76
2021/12/22 04:41:35;;;;;;;11.65;5.68;;;-1.10;67.30;;;;;;5032551;28;20441;-74
2021/12/22 04:44:01;;;;;;;10.47;5.10;;;-1.00;68.00;;;;;;5017846;28;20760;-75
2021/12/22 04:46:27;;;;;;;12.25;5.05;;;-0.90;66.20;;;;;;5032928;28;20397;-76
2021/12/22 04:48:52;;;;;;;11.80;5.70;;;-1.00;66.30;;;;;;5027915;28;20403;-76
2021/12/22 04:51:30;;;;;;;11.93;6.03;;;-1.00;67.00;;;;;;5012041;28;20403;-75
2021/12/22 04:54:17;;;;;;;9.40;5.60;;;-1.20;68.70;;;;;;5012389;28;20416;-75
2021/12/22 04:56:42;;;;;;;6.38;4.93;;;-1.00;68.10;;;;;;5012452;28;20396;-76
2021/12/22 04:59:08;;;;;;;10.20;5.50;;;-1.00;67.10;;;;;;5013077;28;20385;-75
2021/12/22 05:01:34;;;;;;;9.88;5.70;;;-1.10;67.60;;;;;;5032601;28;20478;-75
2021/12/22 05:03:59;;;;;;;10.27;5.47;;;-1.00;68.60;;;;;;5019428;28;20470;-74
2021/12/22 05:06:25;;;;;;;10.55;5.40;;;-0.90;67.30;;;;;;5032040;28;20419;-75
2021/12/22 05:08:51;;;;;;;9.43;5.97;;;-0.90;65.20;;;;;;5032047;28;20429;-75
2021/12/22 05:11:17;;;;;;;10.05;5.50;;;-0.90;65.40;;;;;;5015129;28;20510;-75
2021/12/22 05:13:43;;;;;;;8.02;5.45;;;-1.00;65.50;;;;;;5031934;28;20502;-75
2021/12/22 05:16:16;;;;;;;9.57;5.70;;;-1.00;65.90;;;;;;5036076;28;20394;-76
2021/12/22 05:19:15;;;;;;;10.30;5.28;;;-1.10;66.30;;;;;;5018062;28;20391;-75
2021/12/22 05:21:33;;;;;;;13.65;5.75;;;-1.00;65.70;;;;;;5011273;28;20397;-75
2021/12/22 05:23:59;;;;;;;12.77;5.25;;;-0.90;65.00;;;;;;5012768;28;20815;-75
2021/12/22 05:26:28;;;;;;;9.05;5.38;;;-1.00;65.30;;;;;;5018197;28;20424;-75
2021/12/22 05:28:54;;;;;;;8.23;5.47;;;-0.90;65.00;;;;;;5026288;28;20766;-76
2021/12/22 05:31:21;;;;;;;10.77;5.30;;;-0.90;63.90;;;;;;5015548;28;20473;-75
2021/12/22 05:33:47;;;;;;;10.07;5.45;;;-0.90;64.30;;;;;;5024022;28;20508;-76
2021/12/22 05:36:12;;;;;;;10.40;5.30;;;-0.90;63.80;;;;;;5027603;28;20427;-75
2021/12/22 05:38:38;;;;;;;11.03;6.00;;;-0.90;64.80;;;;;;5029836;28;20442;-75
2021/12/22 05:41:04;;;;;;;8.65;5.50;;;-0.80;63.60;;;;;;5023623;28;20401;-75
2021/12/22 05:43:30;;;;;;;9.57;4.80;;;-0.80;62.80;;;;;;5014281;28;20546;-74
2021/12/22 05:45:56;;;;;;;7.82;5.20;;;-0.90;62.30;;;;;;5012571;28;20423;-76
2021/12/22 05:48:22;;;;;;;8.40;5.25;;;-0.90;62.60;;;;;;5015430;28;20431;-74
2021/12/22 05:50:51;;;;;;;8.20;5.18;;;-0.90;63.40;;;;;;5019921;28;20428;-76
2021/12/22 05:53:17;;;;;;;7.10;4.68;;;-0.90;63.00;;;;;;5020894;28;20411;-76
2021/12/22 05:55:42;;;;;;;10.25;4.68;;;-0.80;61.10;;;;;;5020191;28;20389;-73
2021/12/22 05:58:08;;;;;;;17.20;5.60;;;-0.80;61.20;;;;;;5019129;28;20454;-72
2021/12/22 06:00:34;;;;;;;6.82;4.78;;;-0.80;61.00;;;;;;5030839;28;20430;-72
2021/12/22 06:03:00;;;;;;;8.48;4.95;;;-0.80;60.30;;;;;;5025881;28;20770;-72
2021/12/22 06:05:25;;;;;;;10.30;5.40;;;-0.80;60.90;;;;;;5027495;28;20395;-72
2021/12/22 06:07:51;;;;;;;12.45;5.18;;;-0.70;60.90;;;;;;5029756;28;20482;-73
2021/12/22 06:10:16;;;;;;;11.20;5.57;;;-0.70;59.70;;;;;;5011948;28;20901;-73
2021/12/22 06:12:42;;;;;;;8.87;5.37;;;-0.80;59.90;;;;;;5018777;28;20429;-73
2021/12/22 06:15:09;;;;;;;8.38;4.80;;;-0.70;59.80;;;;;;5026686;28;20399;-73
2021/12/22 06:17:34;;;;;;;7.65;5.40;;;-0.70;58.60;;;;;;5023042;28;20419;-72
2021/12/22 06:20:00;;;;;;;9.20;5.25;;;-0.70;59.00;;;;;;5029733;28;20915;-72
2021/12/22 06:22:28;;;;;;;10.27;5.80;;;-0.70;59.50;;;;;;5031302;28;20391;-72
2021/12/22 06:24:54;;;;;;;9.90;5.55;;;-0.70;60.00;;;;;;5030690;28;20413;-73
2021/12/22 06:27:19;;;;;;;9.50;6.03;;;-0.80;59.90;;;;;;5033292;28;20403;-72
2021/12/22 06:29:45;;;;;;;9.70;5.30;;;-0.70;60.20;;;;;;5017250;28;20424;-72
2021/12/22 06:32:11;;;;;;;7.13;5.60;;;-0.70;59.30;;;;;;5032789;28;20531;-72
2021/12/22 06:34:36;;;;;;;11.60;5.50;;;-0.70;59.60;;;;;;5027952;28;20448;-73
2021/12/22 06:37:02;;;;;;;9.70;5.33;;;-0.70;59.70;;;;;;5014953;28;20404;-73
2021/12/22 06:39:27;;;;;;;9.27;5.28;;;-0.70;59.80;;;;;;5030976;28;20395;-73
2021/12/22 06:41:54;;;;;;;7.67;5.20;;;-0.50;59.50;;;;;;5018100;28;20754;-72
2021/12/22 06:44:23;;;;;;;10.30;5.28;;;-0.50;59.00;;;;;;5023966;28;20433;-72
2021/12/22 06:46:49;;;;;;;8.57;5.35;;;-0.50;57.80;;;;;;5021051;28;20404;-72
2021/12/22 06:49:14;;;;;;;11.20;5.90;;;-0.60;59.40;;;;;;5016513;28;20516;-72
2021/12/22 06:51:40;;;;;;;9.57;6.00;;;-0.60;59.60;;;;;;5032140;28;20403;-73
2021/12/22 06:54:06;;;;;;;12.80;5.73;;;-0.60;58.30;;;;;;5033634;28;20467;-72
2021/12/22 06:56:31;;;;;;;10.10;6.10;;;-0.70;59.30;;;;;;5034216;28;20399;-75
2021/12/22 06:58:59;;;;;;;9.83;5.80;;;-0.70;60.00;;;;;;5038944;28;20395;-72
2021/12/22 07:01:25;;;;;;;11.80;6.20;;;-0.70;60.10;;;;;;5031118;28;20395;-74
2021/12/22 07:03:50;;;;;;;13.90;6.50;;;-0.70;61.40;;;;;;5033001;28;20401;-73
2021/12/22 07:06:16;;;;;;;13.07;6.33;;;-0.70;60.40;;;;;;5026684;28;20395;-74
2021/12/22 07:08:43;;;;;;;10.10;6.88;;;-0.70;60.00;;;;;;5028259;28;20387;-75
2021/12/22 07:11:09;;;;;;;11.45;5.85;;;-0.80;60.50;;;;;;5035642;28;20383;-74
2021/12/22 07:13:35;;;;;;;11.80;5.90;;;-0.70;60.40;;;;;;5025371;28;20776;-73
2021/12/22 07:16:01;;;;;;;8.32;5.60;;;-0.70;61.20;;;;;;5034224;28;20394;-74
2021/12/22 07:18:27;;;;;;;12.68;6.22;;;-0.70;60.00;;;;;;5026547;28;20410;-74
2021/12/22 07:20:53;;;;;;;11.70;6.17;;;-0.60;59.70;;;;;;5026026;28;20772;-74
2021/12/22 07:23:18;;;;;;;12.77;5.72;;;-0.70;60.70;;;;;;5031227;28;20403;-73
2021/12/22 07:25:44;;;;;;;9.43;6.60;;;-0.70;59.50;;;;;;5017321;28;20400;-74
2021/12/22 07:28:10;;;;;;;14.10;7.70;;;-0.70;59.70;;;;;;5039899;28;20409;-74
2021/12/22 07:30:37;;;;;;;15.85;6.80;;;-0.80;59.90;;;;;;5029144;28;20407;-74
2021/12/22 07:33:03;;;;;;;10.43;6.70;;;-0.80;60.50;;;;;;5030663;28;20467;-75
2021/12/22 07:35:29;;;;;;;10.88;6.65;;;-0.70;61.20;;;;;;5018895;28;20407;-75
2021/12/22 07:38:21;;;;;;;15.60;6.90;;;-0.80;60.80;;;;;;5033974;28;20399;-75
2021/12/22 07:40:46;;;;;;;10.23;6.28;;;-0.80;61.20;;;;;;5029153;28;20737;-74
2021/12/22 07:43:12;;;;;;;11.88;6.88;;;-0.70;60.90;;;;;;5043335;28;20415;-74
2021/12/22 07:45:38;;;;;;;13.52;6.78;;;-0.70;58.90;;;;;;5029647;28;20418;-72
2021/12/22 07:48:04;;;;;;;15.13;7.20;;;-0.70;59.50;;;;;;5030340;28;20407;-73
2021/12/22 07:50:29;;;;;;;13.43;6.97;;;-0.80;59.00;;;;;;5020650;28;20492;-76
2021/12/22 07:52:55;;;;;;;12.70;6.67;;;-0.80;58.90;;;;;;5027043;28;20955;-76
2021/12/22 07:55:21;;;;;;;14.15;6.90;;;-0.60;58.50;;;;;;5030237;28;20407;-73
2021/12/22 07:57:46;;;;;;;14.07;7.47;;;-0.50;57.30;;;;;;5037484;28;20568;-73
2021/12/22 08:00:12;;;;;;;10.07;6.53;;;-0.60;56.50;;;;;;5034200;28;20399;-73
2021/12/22 08:02:39;;;;;;;16.25;7.55;;;-0.60;57.40;;;;;;5025113;28;20780;-71
2021/12/22 08:05:05;;;;;;;15.07;6.93;;;-0.70;58.10;;;;;;5028761;28;20769;-73
2021/12/22 08:07:30;;;;;;;14.80;6.60;;;-0.70;57.80;;;;;;5033672;28;20395;-73
2021/12/22 08:09:56;;;;;;;10.47;6.30;;;-0.50;57.90;;;;;;5025532;28;20403;-73
2021/12/22 08:12:21;;;;;;;11.52;6.90;;;-0.50;57.40;;;;;;5032047;28;20407;-75
2021/12/22 08:14:47;;;;;;;13.02;6.97;;;-0.50;57.10;;;;;;5027982;28;20727;-74
2021/12/22 08:17:13;;;;;;;15.73;7.60;;;-0.50;57.20;;;;;;5014272;28;20404;-76
2021/12/22 08:19:40;;;;;;;9.68;6.93;;;-0.50;56.40;;;;;;5013728;28;20425;-75
2021/12/22 08:22:06;;;;;;;12.43;6.82;;;-0.50;56.30;;;;;;5033172;28;20394;-73
2021/12/22 08:24:33;;;;;;;11.43;7.00;;;-0.50;57.30;;;;;;5024687;28;20523;-74
2021/12/22 08:26:59;;;;;;;14.10;7.22;;;-0.40;55.40;;;;;;5027897;28;20407;-74
2021/12/22 08:29:25;;;;;;;10.75;7.25;;;-0.40;56.70;;;;;;5022013;28;20407;-75
2021/12/22 08:31:50;;;;;;;14.20;8.10;;;-0.30;55.40;;;;;;5024838;28;20397;-75
2021/12/22 08:34:23;;;;;;;14.97;7.73;;;-0.40;55.40;;;;;;5037175;28;20543;-74
2021/12/22 08:39:33;;;;;;;15.23;7.78;;;-0.20;55.80;;;;;;5023305;28;20459;-74
2021/12/22 08:41:59;;;;;;;14.70;7.28;;;-0.20;55.10;;;;;;5033965;28;20496;-73
2021/12/22 08:44:26;;;;;;;12.30;7.40;;;-0.20;55.20;;;;;;5039430;28;20397;-74
2021/12/22 08:46:52;;;;;;;16.88;9.15;;;-0.10;54.50;;;;;;5049103;28;20423;-74
2021/12/22 08:49:19;;;;;;;12.95;7.85;;;-0.20;54.80;;;;;;5030018;28;20846;-74
2021/12/22 08:51:46;;;;;;;16.10;7.20;;;-0.10;55.00;;;;;;5018392;28;20391;-74
2021/12/22 08:54:12;;;;;;;15.32;8.10;;;-0.10;53.90;;;;;;5033033;28;20414;-75
2021/12/22 08:56:38;;;;;;;17.52;8.55;;;-0.10;54.10;;;;;;5021157;28;20397;-76
2021/12/22 08:59:06;;;;;;;15.73;8.43;;;-0.10;54.50;;;;;;5020792;28;20398;-75
2021/12/22 09:01:32;;;;;;;14.73;8.48;;;0.20;53.70;;;;;;5024539;28;20458;-74
2021/12/22 09:03:58;;;;;;;17.67;7.50;;;0.50;52.80;;;;;;5011822;28;20431;-73
2021/12/22 09:06:23;;;;;;;12.85;7.50;;;1.20;48.20;;;;;;5011302;28;20905;-74
2021/12/22 09:08:50;;;;;;;16.08;8.00;;;1.40;43.40;;;;;;5012625;28;20462;-73
2021/12/22 09:11:16;;;;;;;13.07;7.50;;;1.60;41.90;;;;;;5025220;28;20971;-73
2021/12/22 09:13:42;;;;;;;11.95;7.95;;;1.60;42.30;;;;;;5029409;28;20502;-72
2021/12/22 09:16:08;;;;;;;13.53;7.50;;;1.30;42.60;;;;;;5035723;28;20379;-73
2021/12/22 09:18:35;;;;;;;16.38;7.93;;;0.90;44.90;;;;;;5036040;28;20410;-73
2021/12/22 09:21:01;;;;;;;16.30;8.35;;;0.60;47.20;;;;;;5018147;28;20392;-74
2021/12/22 09:23:27;;;;;;;16.67;8.00;;;0.60;48.60;;;;;;5012654;28;20415;-72
2021/12/22 09:25:52;;;;;;;12.05;7.50;;;0.70;48.00;;;;;;5011397;28;20389;-74
2021/12/22 09:28:18;;;;;;;12.90;8.07;;;0.70;47.90;;;;;;5027517;28;20421;-73
2021/12/22 09:30:44;;;;;;;17.55;9.15;;;0.80;47.70;;;;;;5031366;28;20519;-74
2021/12/22 09:33:13;;;;;;;16.98;8.40;;;0.80;47.20;;;;;;5023595;28;20450;-73
2021/12/22 09:35:40;;;;;;;15.23;8.07;;;0.90;46.40;;;;;;5024134;28;20407;-73
2021/12/22 09:38:07;;;;;;;16.87;8.60;;;0.90;46.70;;;;;;5031453;28;20497;-74
2021/12/22 09:40:33;;;;;;;15.35;8.43;;;0.80;47.30;;;;;;5023735;28;20453;-74
2021/12/22 09:42:59;;;;;;;15.93;8.15;;;0.90;46.70;;;;;;5031472;28;20549;-73
2021/12/22 09:45:26;;;;;;;13.10;8.60;;;1.10;46.10;;;;;;5026793;28;20957;-74
2021/12/22 09:50:50;;;;;;;16.67;8.57;;;1.40;44.50;;;;;;5024311;28;20679;-72
2021/12/22 09:53:19;;;;;;;13.33;8.80;;;1.30;44.70;;;;;;5033270;28;20922;-73
2021/12/22 09:55:45;;;;;;;13.60;8.68;;;1.40;44.20;;;;;;5028971;28;20398;-73
2021/12/22 09:58:11;;;;;;;20.08;8.52;;;1.50;43.90;;;;;;5030408;28;20388;-74
2021/12/22 10:00:38;;;;;;;15.13;9.20;;;1.40;43.90;;;;;;5016778;28;20457;-74
2021/12/22 10:03:05;;;;;;;14.27;8.57;;;1.60;43.90;;;;;;5011837;28;20816;-73
2021/12/22 10:05:33;;;;;;;16.88;9.68;;;1.70;43.80;;;;;;5021739;28;20776;-73
2021/12/22 10:08:07;;;;;;;20.35;10.60;;;1.70;42.60;;;;;;5025691;28;20399;-74
2021/12/22 10:10:33;;;;;;;15.07;8.73;;;1.90;42.10;;;;;;5022259;28;20447;-73
2021/12/22 10:13:14;;;;;;;18.52;9.45;;;2.10;39.50;;;;;;5026444;28;20837;-73
2021/12/22 10:15:41;;;;;;;16.17;10.02;;;2.10;40.30;;;;;;5029604;28;20786;-73
2021/12/22 10:18:18;;;;;;;17.77;9.63;;;2.10;39.90;;;;;;5024689;28;20398;-77
2021/12/22 10:20:46;;;;;;;20.00;9.98;;;2.00;40.60;;;;;;5029655;28;20898;-73
2021/12/22 10:23:30;;;;;;;17.15;10.50;;;2.00;40.30;;;;;;5023698;28;20837;-73
2021/12/22 10:25:56;;;;;;;16.30;9.30;;;2.00;40.90;;;;;;5011245;28;20478;-74
2021/12/22 10:28:24;;;;;;;17.25;10.60;;;2.30;39.30;;;;;;5024058;28;20403;-73
2021/12/22 10:30:56;;;;;;;16.55;9.52;;;2.20;39.30;;;;;;5027766;28;20484;-73
2021/12/22 10:33:26;;;;;;;16.70;9.95;;;2.20;39.30;;;;;;5027240;28;20409;-73
2021/12/22 10:36:09;;;;;;;19.60;9.77;;;2.30;38.60;;;;;;5016904;28;20484;-73
2021/12/22 10:38:35;;;;;;;22.67;10.75;;;2.40;39.10;;;;;;5014460;28;20434;-74
2021/12/22 10:41:04;;;;;;;14.32;9.73;;;2.30;39.20;;;;;;5023121;28;20490;-71
2021/12/22 10:43:32;;;;;;;20.20;9.87;;;2.60;37.10;;;;;;5012809;28;20389;-74
2021/12/22 10:46:00;;;;;;;18.60;10.65;;;2.70;37.10;;;;;;5023451;28;20778;-73
2021/12/22 10:51:30;;;;;;;19.38;11.23;;;2.40;38.00;;;;;;5032182;28;20962;-73
2021/12/22 10:53:57;;;;;;;19.58;9.73;;;2.30;37.70;;;;;;5035923;28;20424;-73
2021/12/22 10:56:30;;;;;;;15.32;9.63;;;2.40;38.30;;;;;;5028737;28;20410;-73
2021/12/22 10:59:06;;;;;;;15.95;9.93;;;2.60;37.60;;;;;;5022645;28;20375;-74
2021/12/22 11:01:35;;;;;;;15.05;9.88;;;2.40;37.30;;;;;;5034480;28;20391;-75
2021/12/22 11:04:03;;;;;;;16.17;9.82;;;2.50;36.60;;;;;;5032825;28;20482;-73
2021/12/22 11:06:32;;;;;;;15.73;10.25;;;2.40;37.10;;;;;;5032577;28;20420;-74
2021/12/22 11:09:13;;;;;;;16.52;10.18;;;2.50;36.90;;;;;;5036048;28;20418;-75
2021/12/22 11:11:41;;;;;;;19.15;10.68;;;2.60;37.20;;;;;;5029158;28;20402;-74
2021/12/22 11:14:11;;;;;;;17.27;10.20;;;2.80;36.20;;;;;;5015111;28;20926;-75
2021/12/22 11:16:54;;;;;;;22.05;11.45;;;2.80;35.80;;;;;;5022492;28;20403;-75
2021/12/22 11:19:21;;;;;;;22.20;10.50;;;2.80;35.90;;;;;;5014498;28;20412;-74
2021/12/22 11:22:10;;;;;;;14.80;10.43;;;2.80;35.60;;;;;;5019304;28;20405;-74
2021/12/22 11:24:51;;;;;;;20.00;10.20;;;2.90;35.40;;;;;;5026867;28;20753;-75
2021/12/22 11:27:25;;;;;;;21.13;9.60;;;3.10;34.90;;;;;;5023851;28;20399;-75
2021/12/22 11:29:57;;;;;;;18.10;10.10;;;3.30;33.90;;;;;;5028650;28;20396;-75
2021/12/22 11:32:25;;;;;;;15.50;10.20;;;3.20;33.50;;;;;;5024287;28;20399;-74
2021/12/22 11:34:53;;;;;;;15.33;9.77;;;3.20;33.30;;;;;;5023368;28;20978;-77
2021/12/22 11:37:21;;;;;;;17.75;11.05;;;3.20;33.40;;;;;;5022728;28;20402;-73
2021/12/22 11:39:48;;;;;;;16.17;10.27;;;3.20;33.70;;;;;;5022880;28;20403;-73
2021/12/22 11:42:14;;;;;;;19.38;10.45;;;3.10;33.90;;;;;;5033531;28;20402;-74
2021/12/22 11:44:44;;;;;;;15.98;10.10;;;3.20;33.60;;;;;;5027523;28;20428;-75
2021/12/22 11:47:12;;;;;;;17.75;9.25;;;3.20;32.70;;;;;;5018110;28;20486;-75
2021/12/22 11:49:53;;;;;;;19.33;10.48;;;3.10;33.40;;;;;;5020538;28;20405;-75
2021/12/22 11:52:30;;;;;;;16.17;10.00;;;3.50;32.30;;;;;;5031234;28;20399;-74
2021/12/22 11:55:36;;;;;;;18.30;9.90;;;3.30;32.50;;;;;;5025341;28;20422;-76
2021/12/22 11:58:11;;;;;;;18.25;10.20;;;3.20;32.10;;;;;;5034127;28;20387;-75
2021/12/22 12:00:38;;;;;;;15.73;9.88;;;3.30;32.00;;;;;;5024310;28;20401;-76
2021/12/22 12:03:32;;;;;;;15.05;9.88;;;3.60;31.30;;;;;;5020151;28;20396;-74
2021/12/22 12:06:11;;;;;;;12.63;9.02;;;3.30;30.90;;;;;;5014726;28;20739;-73
2021/12/22 12:08:55;;;;;;;18.75;9.82;;;3.50;31.30;;;;;;5031193;28;20399;-74
2021/12/22 12:11:35;;;;;;;23.15;10.75;;;3.40;31.40;;;;;;5018638;28;20411;-76
2021/12/22 12:14:10;;;;;;;18.92;10.43;;;3.30;31.60;;;;;;5026724;28;20398;-75
2021/12/22 12:22:29;;;;;;;17.73;9.85;;;3.60;30.70;;;;;;5035326;28;20422;-74
2021/12/22 12:24:55;;;;;;;15.75;9.88;;;3.60;29.90;;;;;;5030692;28;20399;-76
2021/12/22 12:27:39;;;;;;;17.45;10.40;;;3.60;29.70;;;;;;5033723;28;20398;-74
2021/12/22 12:30:14;;;;;;;22.83;11.30;;;3.70;30.00;;;;;;5016513;28;20747;-75
2021/12/22 12:32:39;;;;;;;16.85;10.35;;;3.60;30.80;;;;;;5013683;28;20389;-75
2021/12/22 12:35:23;;;;;;;20.95;10.15;;;3.70;30.80;;;;;;5026961;28;20507;-76
2021/12/22 12:38:07;;;;;;;16.77;10.30;;;3.80;30.20;;;;;;5021383;28;20457;-74
2021/12/22 12:41:00;;;;;;;16.92;10.00;;;3.80;29.20;;;;;;5011948;28;20425;-75
2021/12/22 12:43:48;;;;;;;16.00;9.98;;;3.70;29.40;;;;;;5020071;28;20382;-74
2021/12/22 12:48:46;;;;;;;21.77;11.05;;;3.90;30.10;;;;;;5032741;28;20424;-76
2021/12/22 12:51:14;;;;;;;25.13;11.88;;;3.90;30.50;;;;;;5015379;28;20898;-75
2021/12/22 12:53:47;;;;;;;21.15;10.57;;;3.80;30.30;;;;;;5012373;28;20823;-75
2021/12/22 12:56:13;;;;;;;18.08;10.27;;;3.70;29.90;;;;;;5024220;28;20534;-74
2021/12/22 12:58:54;;;;;;;18.45;10.60;;;3.90;30.00;;;;;;5023926;28;20436;-75
2021/12/22 13:01:45;;;;;;;16.45;10.68;;;3.70;29.40;;;;;;5011930;28;20377;-75
2021/12/22 13:04:32;;;;;;;19.05;10.93;;;3.70;29.90;;;;;;5017931;28;20881;-76
2021/12/22 13:07:00;;;;;;;14.60;10.15;;;3.80;30.20;;;;;;5026669;28;20462;-75
2021/12/22 13:09:33;;;;;;;17.77;11.02;;;4.00;29.60;;;;;;5026005;28;20406;-76
2021/12/22 13:12:11;;;;;;;18.25;10.93;;;4.10;28.70;;;;;;5025848;28;20413;-75
2021/12/22 13:17:26;;;;;;;21.35;10.70;;;3.70;29.20;;;;;;5024223;28;20434;-75